Time;durP1;ratioP1;P1;durP2;ratioP2;P2;SDS_P1;SDS_P2;PMS_P1;PMS_P2;Temp;Humidity;BMP_temperature;BMP_pressure;BME280_temperature;BME280_humidity;BME280_pressure;Samples;Min_cycle;Max_cycle;Signal;HPM_P1;HPM_P2
2021/04/02 00:01:47;;;;;;;11.25;7.05;;;4.60;87.10;;;;;;5034112;28;20025;-74
2021/04/02 00:04:13;;;;;;;9.07;5.40;;;4.80;86.80;;;;;;5031489;28;20419;-75
2021/04/02 00:06:38;;;;;;;10.88;6.45;;;4.90;85.90;;;;;;5019285;28;20092;-74
2021/04/02 00:09:04;;;;;;;12.50;6.05;;;4.70;86.70;;;;;;5050590;28;20056;-74
2021/04/02 00:11:29;;;;;;;11.52;5.90;;;4.60;86.90;;;;;;5013649;28;20037;-74
2021/04/02 00:13:55;;;;;;;12.23;6.72;;;4.40;86.40;;;;;;5049331;28;20119;-75
2021/04/02 00:16:20;;;;;;;11.85;6.95;;;4.50;86.30;;;;;;5029450;28;20040;-75
2021/04/02 00:18:46;;;;;;;11.52;6.15;;;4.50;87.30;;;;;;5034877;28;20025;-75
2021/04/02 00:21:12;;;;;;;12.48;7.03;;;4.40;88.70;;;;;;5009832;28;20481;-74
2021/04/02 00:23:38;;;;;;;16.42;7.30;;;4.50;87.60;;;;;;5022387;28;20033;-74
2021/04/02 00:26:17;;;;;;;12.63;6.80;;;4.40;88.50;;;;;;5027132;28;20037;-74
2021/04/02 00:28:42;;;;;;;14.88;6.40;;;4.40;88.50;;;;;;5042866;28;20041;-74
2021/04/02 00:31:08;;;;;;;17.88;6.93;;;4.40;87.80;;;;;;5007942;28;20552;-74
2021/04/02 00:33:34;;;;;;;11.57;6.88;;;4.40;88.40;;;;;;5054031;28;20210;-74
2021/04/02 00:35:59;;;;;;;11.00;6.15;;;4.40;88.40;;;;;;5025665;28;20082;-74
2021/04/02 00:38:25;;;;;;;13.00;6.15;;;4.50;87.20;;;;;;5018605;28;20253;-75
2021/04/02 00:41:01;;;;;;;10.98;6.25;;;4.40;86.90;;;;;;5020209;28;20036;-74
2021/04/02 00:43:29;;;;;;;12.35;6.85;;;4.40;88.10;;;;;;5005014;28;20197;-74
2021/04/02 00:45:55;;;;;;;10.32;6.50;;;4.40;88.30;;;;;;5025726;28;20035;-74
2021/04/02 00:48:20;;;;;;;12.88;6.85;;;4.40;86.70;;;;;;5042526;28;20401;-74
2021/04/02 00:50:57;;;;;;;10.02;6.15;;;4.20;89.20;;;;;;5025835;28;20029;-75
2021/04/02 00:53:30;;;;;;;15.23;7.20;;;4.20;87.80;;;;;;5027171;28;20460;-74
2021/04/02 00:55:55;;;;;;;10.95;7.13;;;4.10;88.50;;;;;;5053282;28;20443;-74
2021/04/02 00:58:22;;;;;;;13.95;6.32;;;4.10;89.30;;;;;;5033613;28;20033;-74
2021/04/02 01:00:48;;;;;;;10.82;6.07;;;4.00;89.10;;;;;;5047467;28;20028;-74
2021/04/02 01:03:14;;;;;;;16.70;7.30;;;4.10;88.80;;;;;;5024657;28;20043;-74
2021/04/02 01:05:41;;;;;;;12.00;6.97;;;4.20;89.30;;;;;;5030679;28;20041;-74
2021/04/02 01:08:09;;;;;;;10.57;6.07;;;4.00;88.40;;;;;;5045097;28;20037;-75
2021/04/02 01:10:35;;;;;;;12.73;7.40;;;4.10;90.20;;;;;;5012693;28;20504;-75
2021/04/02 01:13:08;;;;;;;16.20;8.15;;;4.10;89.40;;;;;;5045655;28;20037;-75
2021/04/02 01:15:43;;;;;;;13.77;7.47;;;4.00;88.50;;;;;;5013805;28;20051;-75
2021/04/02 01:18:17;;;;;;;13.95;7.22;;;4.10;90.50;;;;;;5028534;28;20040;-74
2021/04/02 01:20:44;;;;;;;11.90;8.23;;;4.00;88.70;;;;;;5058286;28;20424;-74
2021/04/02 01:23:10;;;;;;;12.30;7.20;;;3.90;89.30;;;;;;5024896;28;20040;-74
2021/04/02 01:25:44;;;;;;;13.32;6.95;;;4.00;89.30;;;;;;5022584;28;20561;-74
2021/04/02 01:28:22;;;;;;;10.23;6.82;;;4.10;90.20;;;;;;5041324;28;20094;-74
2021/04/02 01:30:47;;;;;;;17.98;7.35;;;4.30;90.00;;;;;;5035550;28;20048;-75
2021/04/02 01:33:13;;;;;;;12.02;6.40;;;4.10;89.00;;;;;;5039084;28;20037;-74
2021/04/02 01:35:40;;;;;;;13.90;6.72;;;4.10;90.10;;;;;;5004955;28;20030;-75
2021/04/02 01:38:10;;;;;;;17.33;7.85;;;4.10;89.80;;;;;;5037753;28;20397;-74
2021/04/02 01:40:37;;;;;;;11.75;7.50;;;4.10;89.40;;;;;;5035900;28;20519;-74
2021/04/02 01:43:14;;;;;;;14.57;6.85;;;4.10;90.20;;;;;;5027743;28;20492;-74
2021/04/02 01:45:41;;;;;;;11.90;7.03;;;4.10;90.00;;;;;;5028410;28;20863;-75
2021/04/02 01:48:06;;;;;;;19.80;8.48;;;4.10;89.70;;;;;;5031560;28;20180;-75
2021/04/02 01:50:33;;;;;;;19.45;8.82;;;4.10;90.00;;;;;;5028639;28;20106;-74
2021/04/02 01:52:59;;;;;;;15.88;7.85;;;4.10;89.50;;;;;;5033941;28;20039;-74
2021/04/02 01:55:24;;;;;;;12.25;7.18;;;4.00;89.70;;;;;;5031590;28;20500;-74
2021/04/02 01:57:50;;;;;;;13.85;7.45;;;3.90;89.60;;;;;;5048862;28;20404;-74
2021/04/02 02:00:23;;;;;;;15.77;7.47;;;3.80;89.40;;;;;;5030320;28;20040;-74
2021/04/02 02:02:48;;;;;;;14.70;7.55;;;3.80;89.40;;;;;;5028873;28;20464;-74
2021/04/02 02:05:14;;;;;;;13.52;7.70;;;3.80;90.10;;;;;;5028120;28;20040;-75
2021/04/02 02:07:42;;;;;;;12.43;6.93;;;3.70;89.50;;;;;;5026319;28;20046;-74
2021/04/02 02:10:09;;;;;;;15.30;8.70;;;3.70;89.40;;;;;;5009035;28;20039;-75
2021/04/02 02:12:35;;;;;;;15.60;8.10;;;3.70;89.70;;;;;;5011471;28;20040;-75
2021/04/02 02:15:01;;;;;;;14.55;7.63;;;3.90;90.70;;;;;;5029650;28;20112;-75
2021/04/02 02:17:26;;;;;;;11.98;7.03;;;3.90;90.10;;;;;;5006916;28;20160;-74
2021/04/02 02:19:52;;;;;;;15.07;7.95;;;4.10;89.10;;;;;;5054572;28;20089;-75
2021/04/02 02:22:18;;;;;;;17.75;8.20;;;3.90;89.70;;;;;;5007594;28;20037;-74
2021/04/02 02:24:43;;;;;;;15.63;7.80;;;4.10;89.30;;;;;;5019818;28;20029;-75
2021/04/02 02:27:09;;;;;;;16.08;7.45;;;4.10;88.50;;;;;;5022083;28;20036;-75
2021/04/02 02:29:35;;;;;;;13.70;7.47;;;4.10;88.70;;;;;;5022374;28;20481;-75
2021/04/02 02:32:00;;;;;;;14.85;7.60;;;4.20;87.10;;;;;;5023343;28;20028;-75
2021/04/02 02:34:26;;;;;;;15.60;8.40;;;4.10;88.40;;;;;;5005653;28;20033;-75
2021/04/02 02:36:52;;;;;;;18.73;7.40;;;4.20;87.80;;;;;;5054992;28;20028;-75
2021/04/02 02:39:17;;;;;;;16.45;7.28;;;4.20;87.90;;;;;;5022113;28;20038;-75
2021/04/02 02:41:43;;;;;;;15.43;7.53;;;4.30;87.90;;;;;;5046571;28;20033;-75
2021/04/02 02:44:09;;;;;;;12.30;7.47;;;4.40;87.70;;;;;;5035137;28;20036;-75
2021/04/02 02:46:35;;;;;;;12.52;6.93;;;4.40;87.70;;;;;;5037411;28;20434;-75
2021/04/02 02:49:07;;;;;;;12.00;7.72;;;4.50;86.60;;;;;;5053001;28;20472;-76
2021/04/02 02:51:33;;;;;;;13.50;8.05;;;4.40;87.70;;;;;;5034169;28;20037;-75
2021/04/02 02:54:00;;;;;;;13.82;7.47;;;4.50;87.40;;;;;;5049523;28;20025;-75
2021/04/02 02:56:27;;;;;;;11.93;6.78;;;4.40;88.90;;;;;;5016846;28;20047;-76
2021/04/02 02:58:52;;;;;;;16.08;7.95;;;4.50;86.50;;;;;;5044939;28;20032;-76
2021/04/02 03:01:18;;;;;;;16.15;8.55;;;4.50;87.60;;;;;;5013644;28;20037;-75
2021/04/02 03:03:43;;;;;;;18.15;7.85;;;4.60;88.20;;;;;;5032370;28;20071;-75
2021/04/02 03:06:09;;;;;;;17.33;8.73;;;4.50;89.20;;;;;;5009748;28;20276;-75
2021/04/02 03:08:41;;;;;;;21.90;8.73;;;4.50;89.80;;;;;;5061118;28;20025;-75
2021/04/02 03:11:08;;;;;;;14.68;8.80;;;4.50;90.30;;;;;;5031969;28;20036;-75
2021/04/02 03:13:34;;;;;;;19.48;8.27;;;4.40;90.70;;;;;;5041358;28;20037;-75
2021/04/02 03:15:59;;;;;;;16.45;8.32;;;4.50;90.20;;;;;;5042360;28;20396;-75
2021/04/02 03:18:25;;;;;;;19.20;8.68;;;4.50;90.00;;;;;;5009942;28;20477;-75
2021/04/02 03:20:50;;;;;;;20.65;8.63;;;4.50;91.20;;;;;;5006929;28;20340;-75
2021/04/02 03:23:16;;;;;;;14.18;8.43;;;4.60;90.30;;;;;;5040444;28;20033;-75
2021/04/02 03:25:42;;;;;;;15.25;8.85;;;4.50;90.70;;;;;;5021631;28;20396;-75
2021/04/02 03:28:08;;;;;;;19.27;8.82;;;4.60;90.60;;;;;;5010791;28;20524;-75
2021/04/02 03:30:33;;;;;;;18.27;9.05;;;4.60;90.30;;;;;;5029500;28;20568;-75
2021/04/02 03:33:11;;;;;;;15.63;8.40;;;4.60;90.50;;;;;;5049196;28;20029;-76
2021/04/02 03:35:37;;;;;;;17.55;10.50;;;4.70;90.70;;;;;;5039454;28;20037;-75
2021/04/02 03:38:02;;;;;;;14.48;8.88;;;4.70;90.70;;;;;;5013836;28;20074;-75
2021/04/02 03:40:28;;;;;;;21.70;11.20;;;4.70;91.20;;;;;;5027012;28;20038;-75
2021/04/02 03:42:55;;;;;;;18.88;13.48;;;4.80;90.60;;;;;;5052043;28;20063;-75
2021/04/02 03:45:22;;;;;;;23.90;11.98;;;4.70;90.80;;;;;;5011589;28;20070;-75
2021/04/02 03:47:47;;;;;;;23.88;11.93;;;4.60;90.90;;;;;;5027015;28;20525;-75
2021/04/02 03:50:14;;;;;;;21.92;12.27;;;4.70;91.60;;;;;;5047830;28;20036;-75
2021/04/02 03:52:45;;;;;;;22.38;12.13;;;4.70;91.00;;;;;;5025029;28;20033;-75
2021/04/02 03:55:14;;;;;;;15.48;12.35;;;4.70;91.30;;;;;;5048461;28;20045;-75
2021/04/02 03:57:40;;;;;;;25.63;12.77;;;4.70;91.20;;;;;;5045578;28;20039;-75
2021/04/02 04:00:09;;;;;;;22.42;12.27;;;4.80;90.80;;;;;;5011408;28;20112;-75
2021/04/02 04:02:35;;;;;;;21.45;12.82;;;4.80;90.80;;;;;;5025468;28;20057;-75
2021/04/02 04:05:00;;;;;;;29.48;13.50;;;4.70;91.10;;;;;;5014487;28;20183;-75
2021/04/02 04:07:26;;;;;;;26.30;12.55;;;4.60;91.50;;;;;;5005000;28;20489;-75
2021/04/02 04:09:51;;;;;;;20.98;12.48;;;4.70;91.30;;;;;;5015336;28;20067;-75
2021/04/02 04:12:17;;;;;;;19.67;12.57;;;4.60;91.40;;;;;;5021987;28;20085;-75
2021/04/02 04:14:42;;;;;;;22.77;10.98;;;4.60;91.60;;;;;;5001881;28;20034;-75
2021/04/02 04:17:08;;;;;;;19.25;10.63;;;4.60;91.60;;;;;;5004591;28;20097;-75
2021/04/02 04:19:33;;;;;;;18.48;12.10;;;4.60;91.70;;;;;;5019534;28;20072;-75
2021/04/02 04:21:59;;;;;;;20.58;11.48;;;4.60;91.80;;;;;;5020967;28;20412;-75
2021/04/02 04:24:25;;;;;;;17.08;10.10;;;4.60;91.90;;;;;;5021635;28;20056;-75
2021/04/02 04:26:52;;;;;;;20.30;10.65;;;4.60;91.90;;;;;;5023879;28;20139;-75
2021/04/02 04:29:22;;;;;;;21.17;10.68;;;4.70;91.90;;;;;;5014154;28;20041;-75
2021/04/02 04:31:48;;;;;;;20.27;10.45;;;4.70;91.70;;;;;;5025568;28;20028;-75
2021/04/02 04:34:14;;;;;;;18.90;9.00;;;4.60;91.90;;;;;;5018437;28;20082;-75
2021/04/02 04:36:41;;;;;;;22.85;10.70;;;4.60;91.80;;;;;;5017510;28;20032;-75
2021/04/02 04:39:06;;;;;;;23.73;10.35;;;4.70;91.60;;;;;;5033315;28;20039;-75
2021/04/02 04:41:33;;;;;;;15.00;8.77;;;4.70;91.50;;;;;;5030680;28;20414;-75
2021/04/02 04:43:58;;;;;;;16.70;8.77;;;4.80;91.40;;;;;;5033417;28;20041;-75
2021/04/02 04:46:24;;;;;;;21.08;9.05;;;4.80;91.60;;;;;;5013859;28;20071;-75
2021/04/02 04:48:49;;;;;;;20.33;8.52;;;4.80;91.50;;;;;;5017718;28;20048;-75
2021/04/02 04:51:16;;;;;;;16.73;8.45;;;4.80;91.80;;;;;;5015259;28;20094;-75
2021/04/02 04:53:42;;;;;;;16.77;8.20;;;4.80;91.40;;;;;;5009555;28;20521;-75
2021/04/02 04:56:07;;;;;;;17.58;8.98;;;4.80;91.70;;;;;;5010387;28;20037;-75
2021/04/02 04:58:34;;;;;;;28.15;9.82;;;4.90;91.50;;;;;;5008852;28;20044;-75
2021/04/02 05:01:01;;;;;;;19.95;8.18;;;4.90;91.50;;;;;;5026004;28;20036;-75
2021/04/02 05:03:27;;;;;;;17.83;8.88;;;4.90;91.30;;;;;;5040637;28;20040;-75
2021/04/02 05:05:57;;;;;;;17.90;8.40;;;4.90;91.50;;;;;;5039354;28;20412;-75
2021/04/02 05:08:29;;;;;;;18.40;8.50;;;4.90;91.80;;;;;;5006930;28;20033;-75
2021/04/02 05:10:55;;;;;;;22.95;8.60;;;4.90;91.20;;;;;;5002080;28;20068;-75
2021/04/02 05:13:21;;;;;;;17.23;7.70;;;4.90;91.70;;;;;;5004842;28;20081;-75
2021/04/02 05:15:48;;;;;;;18.30;7.53;;;4.80;91.60;;;;;;5021152;28;20134;-75
2021/04/02 05:18:13;;;;;;;16.35;7.80;;;4.80;91.40;;;;;;5042752;28;20029;-75
2021/04/02 05:20:40;;;;;;;16.17;8.43;;;4.90;91.60;;;;;;5030271;28;20504;-75
2021/04/02 05:23:07;;;;;;;14.73;7.28;;;4.80;91.90;;;;;;5044205;28;20033;-75
2021/04/02 05:25:32;;;;;;;20.58;7.80;;;4.70;92.00;;;;;;5027928;28;20351;-75
2021/04/02 05:27:58;;;;;;;13.63;6.88;;;4.80;92.20;;;;;;5049515;28;20021;-75
2021/04/02 05:30:24;;;;;;;19.33;8.23;;;4.70;92.00;;;;;;5029976;28;20047;-75
2021/04/02 05:32:49;;;;;;;17.48;7.50;;;4.70;91.70;;;;;;5035585;28;20484;-75
2021/04/02 05:35:15;;;;;;;15.45;8.07;;;4.70;91.80;;;;;;5031881;28;20033;-75
2021/04/02 05:37:40;;;;;;;18.90;8.43;;;4.70;91.80;;;;;;5013526;28;20030;-75
2021/04/02 05:40:06;;;;;;;20.10;8.45;;;4.70;92.00;;;;;;5047301;28;20494;-75
2021/04/02 05:42:32;;;;;;;19.65;8.77;;;4.70;91.80;;;;;;5018386;28;20051;-75
2021/04/02 05:44:58;;;;;;;21.02;8.18;;;4.70;91.70;;;;;;5034069;28;20036;-75
2021/04/02 05:47:24;;;;;;;15.00;8.20;;;4.70;91.90;;;;;;5010571;28;20119;-75
2021/04/02 05:49:49;;;;;;;19.90;8.13;;;4.70;92.00;;;;;;5020343;28;20370;-76
2021/04/02 05:52:15;;;;;;;20.90;8.90;;;4.70;92.00;;;;;;5018908;28;20033;-76
2021/04/02 05:54:45;;;;;;;23.33;7.80;;;4.70;91.80;;;;;;5023422;28;20733;-76
2021/04/02 05:57:11;;;;;;;16.35;7.57;;;4.70;91.80;;;;;;5026323;28;20369;-76
2021/04/02 05:59:41;;;;;;;14.32;7.35;;;4.80;91.80;;;;;;5020007;28;20033;-76
2021/04/02 06:02:07;;;;;;;18.52;8.35;;;4.90;91.50;;;;;;5052590;28;20055;-76
2021/04/02 06:04:33;;;;;;;14.85;8.98;;;4.80;91.60;;;;;;5024039;28;20369;-76
2021/04/02 06:06:58;;;;;;;24.30;9.27;;;4.80;91.80;;;;;;5009266;28;20021;-76
2021/04/02 06:09:24;;;;;;;14.60;8.40;;;4.80;92.00;;;;;;5011125;28;20052;-76
2021/04/02 06:11:50;;;;;;;20.23;9.30;;;4.90;91.70;;;;;;5044258;28;20031;-76
2021/04/02 06:14:15;;;;;;;23.35;8.15;;;4.90;91.70;;;;;;5024049;28;20036;-76
2021/04/02 06:16:51;;;;;;;17.70;9.02;;;4.90;91.90;;;;;;5017611;28;20542;-76
2021/04/02 06:19:17;;;;;;;24.88;10.27;;;5.00;92.10;;;;;;5031775;28;20029;-77
2021/04/02 06:21:47;;;;;;;21.67;10.63;;;5.00;92.30;;;;;;5030369;28;20036;-77
2021/04/02 06:24:13;;;;;;;21.67;9.65;;;5.00;92.10;;;;;;5053960;28;20078;-76
2021/04/02 06:26:39;;;;;;;23.00;9.38;;;5.00;92.50;;;;;;5030520;28;20119;-76
2021/04/02 06:29:05;;;;;;;18.73;10.00;;;5.10;92.10;;;;;;5038031;28;20138;-76
2021/04/02 06:31:35;;;;;;;20.60;10.13;;;5.10;92.30;;;;;;5020668;28;20040;-76
2021/04/02 06:34:05;;;;;;;23.73;10.30;;;5.20;92.00;;;;;;5053720;28;20438;-76
2021/04/02 06:36:30;;;;;;;19.60;8.55;;;5.30;91.90;;;;;;5008756;28;20034;-77
2021/04/02 06:38:56;;;;;;;23.33;10.20;;;5.30;92.20;;;;;;5030262;28;20300;-77
2021/04/02 06:41:22;;;;;;;23.10;10.15;;;5.30;91.80;;;;;;5052972;28;20033;-77
2021/04/02 06:43:49;;;;;;;22.85;8.73;;;5.40;92.20;;;;;;5051762;28;20097;-77
2021/04/02 06:46:28;;;;;;;23.17;9.45;;;5.40;92.10;;;;;;5009782;28;20389;-77
2021/04/02 06:48:54;;;;;;;22.27;9.88;;;5.40;92.00;;;;;;5017212;28;20120;-76
2021/04/02 06:51:20;;;;;;;20.30;9.73;;;5.40;92.10;;;;;;5011621;28;20029;-77
2021/04/02 06:53:51;;;;;;;18.30;10.52;;;5.50;92.30;;;;;;5033220;28;20417;-77
2021/04/02 06:56:17;;;;;;;19.77;10.70;;;5.50;92.10;;;;;;5023225;28;20025;-76
2021/04/02 06:58:43;;;;;;;22.50;11.05;;;5.50;92.10;;;;;;5006101;28;20093;-77
2021/04/02 07:01:09;;;;;;;22.02;9.95;;;5.60;92.30;;;;;;5021970;28;20493;-77
2021/04/02 07:03:35;;;;;;;16.88;8.98;;;5.60;92.10;;;;;;5027543;28;20041;-77
2021/04/02 07:06:02;;;;;;;16.42;8.50;;;5.70;92.00;;;;;;5006407;28;20035;-76
2021/04/02 07:08:28;;;;;;;20.00;9.52;;;5.70;92.10;;;;;;5039823;28;20033;-77
2021/04/02 07:10:57;;;;;;;17.63;8.93;;;5.70;92.30;;;;;;5050311;28;20029;-77
2021/04/02 07:13:29;;;;;;;17.35;8.73;;;5.70;92.00;;;;;;5015336;28;20033;-76
2021/04/02 07:15:55;;;;;;;17.23;10.02;;;5.80;91.90;;;;;;5022585;28;20565;-74
2021/04/02 07:18:21;;;;;;;21.95;8.75;;;5.90;92.00;;;;;;5025876;28;20536;-75
2021/04/02 07:20:48;;;;;;;16.45;8.52;;;5.90;91.70;;;;;;5034588;28;20159;-75
2021/04/02 07:23:14;;;;;;;15.45;7.50;;;5.90;91.80;;;;;;5036897;28;20032;-75
2021/04/02 07:25:40;;;;;;;14.60;7.75;;;6.00;91.50;;;;;;5014491;28;20033;-75
2021/04/02 07:28:05;;;;;;;17.38;8.80;;;6.00;91.60;;;;;;5046854;28;20057;-74
2021/04/02 07:30:31;;;;;;;17.88;9.63;;;6.00;91.70;;;;;;5019976;28;20068;-75
2021/04/02 07:33:02;;;;;;;15.13;10.05;;;6.00;91.90;;;;;;5035259;28;20063;-75
2021/04/02 07:35:28;;;;;;;18.02;9.48;;;6.00;91.90;;;;;;5010530;28;20044;-75
2021/04/02 07:37:55;;;;;;;21.20;8.75;;;6.00;91.90;;;;;;5053813;28;20388;-74
2021/04/02 07:40:32;;;;;;;22.20;8.90;;;6.00;91.80;;;;;;5025680;28;20060;-74
2021/04/02 07:42:59;;;;;;;16.83;9.75;;;6.10;91.80;;;;;;5043940;28;20037;-75
2021/04/02 07:45:27;;;;;;;16.17;8.65;;;6.10;91.90;;;;;;5025079;28;20037;-74
2021/04/02 07:47:54;;;;;;;16.20;8.68;;;6.10;91.80;;;;;;5022574;28;20075;-74
2021/04/02 07:50:35;;;;;;;20.08;8.15;;;6.10;91.80;;;;;;5008695;28;20025;-74
2021/04/02 07:53:01;;;;;;;17.70;9.02;;;6.20;91.70;;;;;;5018049;28;20032;-75
2021/04/02 07:55:26;;;;;;;17.00;8.07;;;6.20;91.70;;;;;;4993276;28;20041;-75
2021/04/02 07:58:02;;;;;;;13.93;7.68;;;6.20;91.60;;;;;;5011095;28;20497;-75
2021/04/02 08:00:29;;;;;;;16.88;8.70;;;6.30;91.60;;;;;;5008950;28;20575;-75
2021/04/02 08:03:14;;;;;;;15.98;8.25;;;6.20;91.70;;;;;;5020568;28;20041;-75
2021/04/02 08:05:58;;;;;;;14.20;7.60;;;6.30;91.60;;;;;;4996352;28;20235;-76
2021/04/02 08:08:24;;;;;;;10.73;6.68;;;6.40;91.60;;;;;;5011903;28;20026;-75
2021/04/02 08:11:00;;;;;;;13.75;6.78;;;6.40;91.50;;;;;;5027072;28;20115;-75
2021/04/02 08:13:25;;;;;;;14.18;7.25;;;6.50;91.60;;;;;;4992055;28;20040;-76
2021/04/02 08:15:52;;;;;;;13.38;7.70;;;6.60;91.50;;;;;;5014623;28;20028;-76
2021/04/02 08:18:19;;;;;;;15.88;7.20;;;6.70;91.50;;;;;;5032882;28;20032;-75
2021/04/02 08:20:49;;;;;;;14.40;6.93;;;6.80;91.50;;;;;;5013433;28;20373;-75
2021/04/02 08:23:15;;;;;;;13.40;6.93;;;6.90;91.50;;;;;;5044258;28;20082;-75
2021/04/02 08:25:41;;;;;;;20.08;7.30;;;7.00;91.30;;;;;;5038625;28;20032;-76
2021/04/02 08:28:09;;;;;;;17.75;6.40;;;7.00;91.20;;;;;;5049470;28;20489;-75
2021/04/02 08:30:35;;;;;;;13.20;6.57;;;7.10;91.00;;;;;;5042594;28;20047;-76
2021/04/02 08:33:00;;;;;;;12.25;7.53;;;7.20;91.10;;;;;;5036970;28;20029;-75
2021/04/02 08:35:26;;;;;;;14.93;6.68;;;7.20;91.10;;;;;;5049798;28;20444;-75
2021/04/02 08:38:02;;;;;;;10.00;6.25;;;7.30;91.10;;;;;;5006282;28;20060;-75
2021/04/02 08:40:28;;;;;;;9.52;5.65;;;7.30;91.00;;;;;;5045862;28;20367;-75
2021/04/02 08:43:00;;;;;;;13.93;7.07;;;7.40;90.80;;;;;;4687674;28;10000260;-76
2021/04/02 08:45:26;;;;;;;13.98;6.47;;;7.40;90.70;;;;;;5016708;28;20437;-76
2021/04/02 08:47:52;;;;;;;10.68;5.75;;;7.40;90.70;;;;;;5033291;28;20029;-75
2021/04/02 08:50:17;;;;;;;9.77;6.47;;;7.50;90.60;;;;;;5036712;28;20025;-75
2021/04/02 08:52:43;;;;;;;11.93;6.70;;;7.50;90.40;;;;;;5023018;28;20041;-75
2021/04/02 08:55:10;;;;;;;12.85;5.50;;;7.50;90.40;;;;;;5037348;28;20036;-75
2021/04/02 08:57:36;;;;;;;8.45;5.72;;;7.60;90.40;;;;;;5020574;28;20032;-75
2021/04/02 09:00:07;;;;;;;8.27;5.18;;;7.70;90.30;;;;;;5041452;28;20048;-75
2021/04/02 09:02:34;;;;;;;11.82;5.90;;;7.80;90.30;;;;;;5025781;28;20030;-75
2021/04/02 09:05:01;;;;;;;9.65;5.18;;;7.80;90.20;;;;;;5030534;28;20504;-75
2021/04/02 09:07:26;;;;;;;11.50;4.80;;;7.90;90.00;;;;;;5012425;28;20060;-75
2021/04/02 09:09:52;;;;;;;13.20;5.53;;;8.00;90.10;;;;;;5016761;28;20045;-75
2021/04/02 09:12:19;;;;;;;15.07;5.75;;;8.10;89.90;;;;;;5035535;28;20028;-76
2021/04/02 09:14:45;;;;;;;12.02;5.78;;;8.10;89.80;;;;;;5013488;28;20040;-75
2021/04/02 09:17:15;;;;;;;11.60;5.20;;;8.20;89.80;;;;;;5045125;28;20094;-75
2021/04/02 09:19:42;;;;;;;8.50;5.55;;;8.20;89.60;;;;;;5024550;28;20032;-75
2021/04/02 09:22:07;;;;;;;12.07;5.30;;;8.30;89.40;;;;;;5029209;28;20331;-74
2021/04/02 09:24:39;;;;;;;12.13;6.25;;;8.40;89.40;;;;;;5030765;28;20085;-75
2021/04/02 09:27:14;;;;;;;12.00;6.05;;;8.40;88.40;;;;;;5044548;28;20036;-75
2021/04/02 09:29:46;;;;;;;10.52;4.97;;;8.40;88.00;;;;;;5018012;28;20091;-75
2021/04/02 09:32:12;;;;;;;6.72;5.40;;;8.40;88.10;;;;;;5017618;28;20119;-75
2021/04/02 09:34:38;;;;;;;12.25;5.43;;;8.40;87.50;;;;;;5039914;28;20557;-75
2021/04/02 09:37:04;;;;;;;11.63;4.65;;;8.40;87.70;;;;;;5027529;28;20373;-74
2021/04/02 09:39:30;;;;;;;8.23;4.70;;;8.50;87.80;;;;;;5044745;28;20040;-74
2021/04/02 09:41:59;;;;;;;9.27;5.47;;;8.50;87.30;;;;;;5044487;28;20061;-75
2021/04/02 09:44:27;;;;;;;9.65;6.05;;;8.50;87.30;;;;;;5025224;28;20052;-75
2021/04/02 09:46:59;;;;;;;13.02;5.32;;;8.50;86.70;;;;;;5025934;28;20021;-74
2021/04/02 09:49:25;;;;;;;9.82;5.97;;;8.50;87.10;;;;;;5030655;28;20090;-74
2021/04/02 09:51:54;;;;;;;10.52;5.50;;;8.50;86.90;;;;;;5033511;28;20419;-74
2021/04/02 09:54:20;;;;;;;12.70;4.97;;;8.60;86.60;;;;;;5039063;28;20037;-74
2021/04/02 09:56:46;;;;;;;9.80;5.30;;;8.60;86.80;;;;;;5051992;28;20393;-74
2021/04/02 09:59:12;;;;;;;13.18;5.93;;;8.60;86.70;;;;;;5035882;28;20032;-75
2021/04/02 10:01:38;;;;;;;12.90;6.70;;;8.70;86.80;;;;;;5052531;28;20506;-74
2021/04/02 10:04:05;;;;;;;12.98;6.82;;;8.70;86.60;;;;;;5049869;28;20095;-74
2021/04/02 10:06:30;;;;;;;11.77;6.88;;;8.80;86.30;;;;;;5037128;28;20041;-75
2021/04/02 10:08:56;;;;;;;9.98;5.93;;;8.90;86.20;;;;;;5054627;28;20478;-74
2021/04/02 10:11:25;;;;;;;12.23;5.53;;;9.00;86.30;;;;;;5006289;28;20519;-74
2021/04/02 10:13:50;;;;;;;16.25;7.07;;;9.10;86.30;;;;;;5036562;28;20490;-74
2021/04/02 10:16:19;;;;;;;10.82;6.10;;;9.20;86.20;;;;;;5021083;28;20037;-74
2021/04/02 10:18:47;;;;;;;10.77;7.63;;;9.40;86.40;;;;;;5028708;28;20057;-74
2021/04/02 10:21:12;;;;;;;10.48;6.72;;;9.40;85.00;;;;;;5026644;28;20898;-74
2021/04/02 10:23:38;;;;;;;13.88;7.60;;;9.50;84.60;;;;;;5054976;28;20025;-73
2021/04/02 10:26:03;;;;;;;13.50;6.00;;;9.60;84.60;;;;;;5051577;28;20047;-74
2021/04/02 10:28:29;;;;;;;14.88;7.22;;;9.60;84.50;;;;;;5048261;28;20028;-74
2021/04/02 10:30:55;;;;;;;12.45;6.88;;;9.70;84.50;;;;;;5029030;28;20119;-75
2021/04/02 10:33:20;;;;;;;18.27;10.18;;;9.80;83.80;;;;;;5050815;28;20083;-74
2021/04/02 10:35:46;;;;;;;21.95;15.05;;;9.80;83.70;;;;;;5010077;28;20038;-73
2021/04/02 10:38:12;;;;;;;22.55;15.45;;;9.90;82.70;;;;;;5026366;28;20514;-74
2021/04/02 10:40:38;;;;;;;26.27;16.50;;;9.90;82.60;;;;;;5024545;28;20032;-74
2021/04/02 10:43:03;;;;;;;30.80;22.27;;;9.90;82.50;;;;;;5011319;28;20037;-74
2021/04/02 10:45:29;;;;;;;40.60;26.23;;;9.90;81.20;;;;;;5034294;28;20488;-74
2021/04/02 10:47:55;;;;;;;42.15;27.83;;;9.90;81.00;;;;;;5014204;28;20061;-74
2021/04/02 10:50:21;;;;;;;37.22;23.92;;;9.90;80.60;;;;;;5013615;28;20096;-73
2021/04/02 10:52:46;;;;;;;38.67;22.98;;;9.90;80.70;;;;;;5048033;28;20557;-73
2021/04/02 10:55:12;;;;;;;41.90;27.75;;;9.90;81.60;;;;;;5028777;28;20112;-74
2021/04/02 10:57:38;;;;;;;43.63;29.83;;;9.90;81.60;;;;;;5043089;28;20033;-74
2021/04/02 11:00:08;;;;;;;35.05;23.35;;;9.90;81.80;;;;;;5036452;28;20380;-74
2021/04/02 11:02:33;;;;;;;33.20;21.67;;;9.90;80.60;;;;;;5032323;28;20029;-74
2021/04/02 11:04:59;;;;;;;41.60;26.08;;;9.90;81.00;;;;;;5044663;28;20040;-74
2021/04/02 11:07:25;;;;;;;37.45;29.23;;;9.80;80.90;;;;;;5007291;28;20021;-73
2021/04/02 11:09:51;;;;;;;43.75;27.25;;;9.70;79.70;;;;;;5031465;28;20068;-73
2021/04/02 11:12:16;;;;;;;40.00;31.27;;;9.80;80.60;;;;;;5024206;28;20473;-73
2021/04/02 11:14:42;;;;;;;34.22;22.65;;;9.70;79.70;;;;;;5008674;28;20032;-73
2021/04/02 11:17:07;;;;;;;30.80;17.40;;;9.60;80.00;;;;;;5022679;28;20674;-74
2021/04/02 11:19:33;;;;;;;33.97;20.13;;;9.60;80.30;;;;;;5019114;28;20037;-74
2021/04/02 11:21:58;;;;;;;31.67;24.40;;;9.60;80.80;;;;;;4669427;28;10000766;-74
2021/04/02 11:24:24;;;;;;;34.13;23.63;;;9.60;80.20;;;;;;4698522;28;9999900;-74
2021/04/02 11:26:49;;;;;;;38.35;23.27;;;9.60;79.90;;;;;;5035612;28;20420;-75
2021/04/02 11:29:15;;;;;;;28.25;19.05;;;9.60;80.20;;;;;;5023117;28;20319;-75
2021/04/02 11:31:40;;;;;;;27.77;21.35;;;9.60;80.00;;;;;;5032561;28;20033;-74
2021/04/02 11:34:06;;;;;;;28.70;20.38;;;9.60;79.90;;;;;;5042773;28;20086;-74
2021/04/02 11:36:32;;;;;;;26.33;17.90;;;9.60;79.30;;;;;;5031337;28;20034;-74
2021/04/02 11:38:57;;;;;;;30.00;21.52;;;9.50;79.70;;;;;;5013465;28;20524;-75
2021/04/02 11:41:23;;;;;;;18.42;14.07;;;9.30;78.10;;;;;;5023171;28;20555;-73
2021/04/02 11:43:48;;;;;;;18.40;14.00;;;9.30;78.10;;;;;;5048253;28;20033;-75
2021/04/02 11:46:14;;;;;;;15.50;13.07;;;9.20;78.50;;;;;;5047981;28;20128;-72
2021/04/02 11:48:39;;;;;;;24.88;14.93;;;9.10;77.50;;;;;;5029567;28;20090;-72
2021/04/02 11:51:05;;;;;;;16.88;11.43;;;9.00;77.20;;;;;;5032871;28;20116;-75
2021/04/02 11:53:31;;;;;;;15.95;10.00;;;9.00;78.30;;;;;;5045891;28;20036;-72
2021/04/02 11:55:56;;;;;;;19.83;10.23;;;9.10;78.60;;;;;;5050826;28;20024;-73
2021/04/02 11:58:22;;;;;;;19.27;9.40;;;9.20;78.70;;;;;;5044379;28;20600;-73
2021/04/02 12:00:47;;;;;;;16.55;9.57;;;9.30;78.50;;;;;;5041594;28;20540;-73
2021/04/02 12:03:13;;;;;;;17.35;8.23;;;9.40;77.70;;;;;;5025175;28;20034;-73
2021/04/02 12:05:38;;;;;;;13.45;8.25;;;9.50;77.50;;;;;;5044711;28;20562;-73
2021/04/02 12:08:04;;;;;;;13.13;9.57;;;9.40;77.70;;;;;;5043832;28;20033;-73
2021/04/02 12:10:30;;;;;;;18.58;10.25;;;9.50;77.50;;;;;;5039935;28;20030;-73
2021/04/02 12:12:55;;;;;;;13.18;8.38;;;9.50;77.20;;;;;;5029426;28;20024;-73
2021/04/02 12:15:21;;;;;;;13.95;7.93;;;9.60;77.70;;;;;;5014567;28;20029;-72
2021/04/02 12:17:46;;;;;;;11.13;7.30;;;9.80;77.30;;;;;;5027625;28;20032;-72
2021/04/02 12:20:14;;;;;;;10.65;6.03;;;9.90;77.50;;;;;;5032797;28;20779;-75
2021/04/02 12:22:39;;;;;;;15.38;5.88;;;10.00;77.20;;;;;;5023892;28;20029;-74
2021/04/02 12:25:06;;;;;;;14.75;6.35;;;10.20;77.50;;;;;;5022291;28;20079;-74
2021/04/02 12:27:32;;;;;;;9.27;5.80;;;10.40;77.30;;;;;;5045184;28;20429;-73
2021/04/02 12:29:58;;;;;;;7.78;5.53;;;10.60;77.80;;;;;;5017613;28;20044;-74
2021/04/02 12:32:23;;;;;;;14.88;5.07;;;10.70;78.00;;;;;;5033934;28;20032;-74
2021/04/02 12:34:49;;;;;;;9.73;4.97;;;10.90;76.20;;;;;;5029058;28;20037;-75
2021/04/02 12:37:15;;;;;;;12.02;4.55;;;11.00;74.70;;;;;;5028013;28;20581;-73
2021/04/02 12:39:41;;;;;;;8.18;4.35;;;11.30;73.80;;;;;;5008436;28;20064;-73
2021/04/02 12:42:07;;;;;;;8.50;4.18;;;11.60;70.20;;;;;;5047056;28;20468;-73
2021/04/02 12:44:32;;;;;;;10.52;4.15;;;11.70;71.00;;;;;;5049928;28;20033;-73